Terminal Aerodrome Forecast
Issued by NWS Lake Charles, LA

Home | Current Version | Previous Version | Text Only | Print | Product List | Glossary On
Versions: 1 2 3 4 5 6 7 8 9 10 11 12 13
000
FTUS44 KLCH 221100
TAFARA
TAF
KARA 221140Z 2212/2312 10007KT P6SM BKN035 OVC100
     FM221600 11009G22KT P6SM VCSH FEW035 BKN100
     FM230200 14011KT P6SM TSRA SCT018 OVC025CB=

USA.gov is the U.S. government's official web portal to all federal, state and local government web resources and services.